createdAt,value
2022-12-09T00:02:36.942Z,9.73
2022-12-09T00:05:34.185Z,9.93
2022-12-09T00:08:31.185Z,11.35
2022-12-09T00:11:28.394Z,8.35
2022-12-09T00:14:25.723Z,9.90
2022-12-09T00:17:22.699Z,9.35
2022-12-09T00:20:19.623Z,7.07
2022-12-09T00:23:16.730Z,7.93
2022-12-09T00:26:15.901Z,9.43
2022-12-09T00:29:13.317Z,9.13
2022-12-09T00:32:10.395Z,9.43
2022-12-09T00:35:08.079Z,8.77
2022-12-09T00:38:05.434Z,8.13
2022-12-09T00:41:03.364Z,9.02
2022-12-09T00:44:00.415Z,8.55
2022-12-09T00:46:57.644Z,7.97
2022-12-09T00:49:54.651Z,7.63
2022-12-09T00:52:51.717Z,8.50
2022-12-09T00:55:49.115Z,7.75
2022-12-09T00:58:46.290Z,8.18
2022-12-09T01:01:43.335Z,8.25
2022-12-09T01:04:40.383Z,8.65
2022-12-09T01:07:40.209Z,9.65
2022-12-09T01:10:39.281Z,9.10
2022-12-09T01:13:36.197Z,9.85
2022-12-09T01:16:34.895Z,10.18
2022-12-09T01:19:31.968Z,9.70
2022-12-09T01:22:28.914Z,9.90
2022-12-09T01:25:25.867Z,8.68
2022-12-09T01:28:23.157Z,9.55
2022-12-09T01:31:24.099Z,8.77
2022-12-09T01:34:21.190Z,9.40
2022-12-09T01:37:18.416Z,9.73
2022-12-09T01:40:19.062Z,8.38
2022-12-09T01:43:20.361Z,9.57
2022-12-09T01:46:17.283Z,10.52
2022-12-09T01:49:32.376Z,10.20
2022-12-09T01:52:29.326Z,8.63
2022-12-09T01:55:27.167Z,8.40
2022-12-09T01:58:25.217Z,9.32
2022-12-09T02:01:22.563Z,7.68
2022-12-09T02:04:19.803Z,8.98
2022-12-09T02:07:19.387Z,9.13
2022-12-09T02:10:18.100Z,8.40
2022-12-09T02:13:18.044Z,9.27
2022-12-09T02:16:21.402Z,9.18
2022-12-09T02:19:51.860Z,9.27
2022-12-09T02:23:24.314Z,8.00
2022-12-09T02:26:37.487Z,8.43
2022-12-09T02:29:48.915Z,8.52
2022-12-09T02:33:13.233Z,8.98
2022-12-09T02:36:17.568Z,9.50
2022-12-09T02:39:14.737Z,9.30
2022-12-09T02:42:17.527Z,9.82
2022-12-09T02:45:16.896Z,8.60
2022-12-09T02:48:18.492Z,8.95
2022-12-09T02:51:19.384Z,7.93
2022-12-09T02:54:19.579Z,9.27
2022-12-09T02:57:23.360Z,9.02
2022-12-09T03:00:20.749Z,9.02
2022-12-09T03:03:19.252Z,8.40
2022-12-09T03:06:18.533Z,9.95
2022-12-09T03:09:31.841Z,9.88
2022-12-09T03:12:32.739Z,9.27
2022-12-09T03:15:35.388Z,10.32
2022-12-09T03:18:33.891Z,9.35
2022-12-09T03:21:35.490Z,8.15
2022-12-09T03:24:50.943Z,8.93
2022-12-09T03:28:00.386Z,6.53
2022-12-09T03:31:06.178Z,6.65
2022-12-09T03:34:06.375Z,6.38
2022-12-09T03:37:05.621Z,7.00
2022-12-09T03:40:11.656Z,5.82
2022-12-09T03:43:23.028Z,6.95
2022-12-09T03:46:22.151Z,5.57
2022-12-09T03:49:19.553Z,5.82
2022-12-09T03:52:32.132Z,5.45
2022-12-09T03:55:34.779Z,5.95
2022-12-09T03:58:35.222Z,6.43
2022-12-09T04:01:33.020Z,5.45
2022-12-09T04:04:30.475Z,5.43
2022-12-09T04:07:27.523Z,5.13
2022-12-09T04:10:24.877Z,6.00
2022-12-09T04:13:21.731Z,6.22
2022-12-09T04:16:18.724Z,6.10
2022-12-09T04:19:16.202Z,6.88
2022-12-09T04:22:13.432Z,6.47
2022-12-09T04:25:11.023Z,6.20
2022-12-09T04:28:08.118Z,6.68
2022-12-09T04:31:05.225Z,6.95
2022-12-09T04:34:08.372Z,6.80
2022-12-09T04:37:06.486Z,6.35
2022-12-09T04:40:06.894Z,6.35
2022-12-09T04:43:04.633Z,7.13
2022-12-09T04:46:05.206Z,7.20
2022-12-09T04:49:03.165Z,6.20
2022-12-09T04:52:00.271Z,7.40
2022-12-09T04:54:57.148Z,8.32
2022-12-09T04:57:54.274Z,8.55
2022-12-09T05:00:51.591Z,7.45
2022-12-09T05:03:51.089Z,9.57
2022-12-09T05:06:48.239Z,8.55
2022-12-09T05:09:45.835Z,9.05
2022-12-09T05:12:42.792Z,8.10
2022-12-09T05:15:40.205Z,6.47
2022-12-09T05:18:37.643Z,6.88
2022-12-09T05:21:35.176Z,5.47
2022-12-09T05:24:32.855Z,6.43
2022-12-09T05:27:29.885Z,6.70
2022-12-09T05:30:27.137Z,5.18
2022-12-09T05:33:24.436Z,6.55
2022-12-09T05:36:24.756Z,5.63
2022-12-09T05:39:23.414Z,6.25
2022-12-09T05:42:20.555Z,6.18
2022-12-09T05:45:17.939Z,6.13
2022-12-09T05:48:14.943Z,6.43
2022-12-09T05:51:18.653Z,6.45
2022-12-09T05:54:16.456Z,5.90
2022-12-09T05:57:13.729Z,5.82
2022-12-09T06:00:11.952Z,6.45
2022-12-09T06:03:09.779Z,7.32
2022-12-09T06:06:10.496Z,8.27
2022-12-09T06:09:11.568Z,7.80
2022-12-09T06:12:09.550Z,8.98
2022-12-09T06:15:10.521Z,6.40
2022-12-09T06:18:09.011Z,7.63
2022-12-09T06:21:13.316Z,8.95
2022-12-09T06:24:10.580Z,7.55
2022-12-09T06:27:07.647Z,17.45
2022-12-09T06:30:05.281Z,6.35
2022-12-09T06:33:02.712Z,5.70
2022-12-09T06:36:05.350Z,5.80
2022-12-09T06:39:09.947Z,6.70
2022-12-09T06:42:08.419Z,9.77
2022-12-09T06:45:06.667Z,11.38
2022-12-09T06:48:05.477Z,7.07
2022-12-09T06:51:02.574Z,5.55
2022-12-09T06:53:59.825Z,5.75
2022-12-09T06:56:57.018Z,5.03
2022-12-09T06:59:54.445Z,5.50
2022-12-09T07:02:52.579Z,5.35
2022-12-09T07:05:49.988Z,5.10
2022-12-09T07:08:47.113Z,6.55
2022-12-09T07:11:47.073Z,7.47
2022-12-09T07:14:44.528Z,9.68
2022-12-09T07:17:42.198Z,5.72
2022-12-09T07:20:39.106Z,6.85
2022-12-09T07:23:37.238Z,9.45
2022-12-09T07:26:35.169Z,10.30
2022-12-09T07:29:33.633Z,7.10
2022-12-09T07:32:30.776Z,12.30
2022-12-09T07:35:27.830Z,10.43
2022-12-09T07:38:26.456Z,7.25
2022-12-09T07:41:25.138Z,8.63
2022-12-09T07:44:23.472Z,7.97
2022-12-09T07:47:20.582Z,7.20
2022-12-09T07:50:17.784Z,7.65
2022-12-09T07:53:14.892Z,6.43
2022-12-09T07:56:14.934Z,10.25
2022-12-09T07:59:14.683Z,12.00
2022-12-09T08:02:11.922Z,8.57
2022-12-09T08:05:09.484Z,9.07
2022-12-09T08:08:07.516Z,7.22
2022-12-09T08:11:09.645Z,6.70
2022-12-09T08:14:12.661Z,5.80
2022-12-09T08:17:10.447Z,6.53
2022-12-09T08:20:08.736Z,5.55
2022-12-09T08:23:09.663Z,6.28
2022-12-09T08:26:07.571Z,5.43
2022-12-09T08:29:11.996Z,5.57
2022-12-09T08:32:09.629Z,6.65
2022-12-09T08:35:07.572Z,6.85
2022-12-09T08:38:05.998Z,6.85
2022-12-09T08:41:35.895Z,5.40
2022-12-09T08:44:33.579Z,5.97
2022-12-09T08:47:30.586Z,7.40
2022-12-09T08:50:28.317Z,6.90
2022-12-09T08:53:25.771Z,5.78
2022-12-09T08:56:23.116Z,6.28
2022-12-09T08:59:20.864Z,6.68
2022-12-09T09:02:18.218Z,7.47
2022-12-09T09:05:15.620Z,6.28
2022-12-09T09:08:12.778Z,5.70
2022-12-09T09:11:20.239Z,5.85
2022-12-09T09:14:17.662Z,5.80
2022-12-09T09:17:15.265Z,5.47
2022-12-09T09:20:13.550Z,6.80
2022-12-09T09:23:11.288Z,6.72
2022-12-09T09:26:14.618Z,6.57
2022-12-09T09:29:14.417Z,6.40
2022-12-09T09:32:12.565Z,6.43
2022-12-09T09:35:10.212Z,6.13
2022-12-09T09:38:07.534Z,6.38
2022-12-09T09:41:47.311Z,4.93
2022-12-09T09:44:52.088Z,5.27
2022-12-09T09:47:59.443Z,5.97
2022-12-09T09:51:16.460Z,5.88
2022-12-09T09:54:14.831Z,5.00
2022-12-09T09:57:24.849Z,5.22
2022-12-09T10:00:31.140Z,5.95
2022-12-09T10:03:47.539Z,5.90
2022-12-09T10:07:07.113Z,6.57
2022-12-09T10:10:17.200Z,6.88
2022-12-09T10:13:29.437Z,6.93
2022-12-09T10:17:15.575Z,7.18
2022-12-09T10:20:23.663Z,6.68
2022-12-09T10:23:23.461Z,9.88
2022-12-09T10:26:27.352Z,14.57
2022-12-09T10:29:59.332Z,20.27
2022-12-09T10:33:05.647Z,8.73
2022-12-09T10:36:04.225Z,7.65
2022-12-09T10:39:03.104Z,6.75
2022-12-09T10:42:19.566Z,6.82
2022-12-09T10:45:17.019Z,7.75
2022-12-09T10:48:36.673Z,8.18
2022-12-09T10:51:39.130Z,10.02
2022-12-09T10:54:44.891Z,8.73
2022-12-09T10:57:42.657Z,7.30
2022-12-09T11:00:39.670Z,7.25
2022-12-09T11:03:56.160Z,6.32
2022-12-09T11:07:15.749Z,6.47
2022-12-09T11:10:25.749Z,7.05
2022-12-09T11:16:32.313Z,7.55
2022-12-09T11:19:36.029Z,7.13
2022-12-09T11:22:41.220Z,5.95
2022-12-09T11:25:39.200Z,9.95
2022-12-09T11:28:39.365Z,8.18
2022-12-09T11:31:40.838Z,6.80
2022-12-09T11:34:37.977Z,6.57
2022-12-09T11:37:39.304Z,8.55
2022-12-09T11:40:36.178Z,8.35
2022-12-09T11:43:48.764Z,7.47
2022-12-09T11:46:46.274Z,6.47
2022-12-09T11:49:56.280Z,6.55
2022-12-09T11:53:19.447Z,5.40
2022-12-09T11:56:22.885Z,6.43
2022-12-09T11:59:26.581Z,5.93
2022-12-09T12:02:42.441Z,6.30
2022-12-09T12:05:48.325Z,5.65
2022-12-09T12:08:56.436Z,5.82
2022-12-09T12:12:29.283Z,6.25
2022-12-09T12:16:04.115Z,5.95
2022-12-09T12:19:19.276Z,5.15
2022-12-09T12:22:55.044Z,6.53
2022-12-09T12:26:21.946Z,5.93
2022-12-09T12:29:49.291Z,5.57
2022-12-09T12:37:00.805Z,6.45
2022-12-09T12:40:26.842Z,6.47
2022-12-09T12:43:48.763Z,7.18
2022-12-09T12:47:09.825Z,6.90
2022-12-09T12:50:14.653Z,7.78
2022-12-09T12:53:49.126Z,7.38
2022-12-09T12:57:09.501Z,7.55
2022-12-09T13:00:13.470Z,6.50
2022-12-09T13:04:02.009Z,6.32
2022-12-09T13:07:33.823Z,6.70
2022-12-09T13:10:53.654Z,7.43
2022-12-09T13:13:57.460Z,7.47
2022-12-09T13:16:54.679Z,8.63
2022-12-09T13:19:57.821Z,7.05
2022-12-09T13:23:14.679Z,6.50
2022-12-09T13:26:58.776Z,6.95
2022-12-09T13:30:01.600Z,9.40
2022-12-09T13:33:25.382Z,7.65
2022-12-09T13:36:43.052Z,7.65
2022-12-09T13:39:39.937Z,7.93
2022-12-09T13:42:56.102Z,7.30
2022-12-09T13:45:59.593Z,8.93
2022-12-09T13:48:56.971Z,8.60
2022-12-09T13:51:55.668Z,9.63
2022-12-09T13:54:52.613Z,9.00
2022-12-09T13:58:23.043Z,7.28
2022-12-09T14:01:58.166Z,12.43
2022-12-09T14:05:28.396Z,21.52
2022-12-09T14:08:33.372Z,23.45
2022-12-09T14:11:47.025Z,21.20
2022-12-09T14:14:43.788Z,27.33
2022-12-09T14:17:40.486Z,19.83
2022-12-09T14:20:39.595Z,15.77
2022-12-09T14:23:36.471Z,16.77
2022-12-09T14:26:35.969Z,9.52
2022-12-09T14:29:58.903Z,8.15
2022-12-09T14:32:57.181Z,10.07
2022-12-09T14:36:12.929Z,12.45
2022-12-09T14:39:25.217Z,9.82
2022-12-09T14:42:57.947Z,10.02
2022-12-09T14:46:02.185Z,11.80
2022-12-09T14:49:13.848Z,10.23
2022-12-09T14:52:31.063Z,10.05
2022-12-09T14:55:30.534Z,8.88
2022-12-09T14:58:28.041Z,14.88
2022-12-09T15:01:24.983Z,8.70
2022-12-09T15:04:33.713Z,12.10
2022-12-09T15:07:33.599Z,18.02
2022-12-09T15:10:36.426Z,14.63
2022-12-09T15:13:37.746Z,95.88
2022-12-09T15:16:34.661Z,61.65
2022-12-09T15:19:59.084Z,76.65
2022-12-09T15:23:12.768Z,51.78
2022-12-09T15:26:32.391Z,16.58
2022-12-09T15:29:32.529Z,16.75
2022-12-09T15:32:30.572Z,65.63
2022-12-09T15:35:32.425Z,83.85
2022-12-09T15:38:40.752Z,12.45
2022-12-09T15:42:05.959Z,7.00
2022-12-09T15:45:29.471Z,46.92
2022-12-09T15:48:38.837Z,14.98
2022-12-09T15:51:39.756Z,123.63
2022-12-09T15:54:41.267Z,159.40
2022-12-09T15:57:39.498Z,69.10
2022-12-09T16:00:49.203Z,102.22
2022-12-09T16:03:51.362Z,24.70
2022-12-09T16:06:50.318Z,54.30
2022-12-09T16:10:12.506Z,73.88
2022-12-09T16:13:16.230Z,27.98
2022-12-09T16:16:51.808Z,17.80
2022-12-09T16:19:48.880Z,14.80
2022-12-09T16:22:50.236Z,9.70
2022-12-09T16:25:49.978Z,8.43
2022-12-09T16:28:56.699Z,10.60
2022-12-09T16:32:21.343Z,7.95
2022-12-09T16:35:22.878Z,13.32
2022-12-09T16:38:20.370Z,19.25
2022-12-09T16:41:17.399Z,10.32
2022-12-09T16:44:34.111Z,14.48
2022-12-09T16:47:32.886Z,16.75
2022-12-09T16:50:36.818Z,11.90
2022-12-09T16:53:54.376Z,35.47
2022-12-09T16:56:51.962Z,24.02
2022-12-09T16:59:48.865Z,19.63
2022-12-09T17:02:58.392Z,13.68
2022-12-09T17:05:55.247Z,16.92
2022-12-09T17:08:52.587Z,21.83
2022-12-09T17:11:49.692Z,16.15
2022-12-09T17:14:46.715Z,14.23
2022-12-09T17:17:48.919Z,11.90
2022-12-09T17:20:46.113Z,15.18
2022-12-09T17:23:43.670Z,24.50
2022-12-09T17:26:40.522Z,18.08
2022-12-09T17:29:37.504Z,15.07
2022-12-09T17:32:34.348Z,16.80
2022-12-09T17:35:33.808Z,13.00
2022-12-09T17:38:30.747Z,13.50
2022-12-09T17:41:27.588Z,12.35
2022-12-09T17:44:25.038Z,18.33
2022-12-09T17:47:22.093Z,18.80
2022-12-09T17:50:19.107Z,20.75
2022-12-09T17:53:16.052Z,21.52
2022-12-09T17:56:20.961Z,26.05
2022-12-09T17:59:18.076Z,23.30
2022-12-09T18:02:14.920Z,21.17
2022-12-09T18:05:11.865Z,21.63
2022-12-09T18:08:08.863Z,31.30
2022-12-09T18:11:10.898Z,18.08
2022-12-09T18:14:10.006Z,25.92
2022-12-09T18:17:07.221Z,31.77
2022-12-09T18:20:05.530Z,47.70
2022-12-09T18:23:02.908Z,26.10
2022-12-09T18:26:00.300Z,28.63
2022-12-09T18:28:57.839Z,38.78
2022-12-09T18:31:56.811Z,25.05
2022-12-09T18:34:54.740Z,20.58
2022-12-09T18:37:51.879Z,26.05
2022-12-09T18:41:04.016Z,14.02
2022-12-09T18:44:04.786Z,15.70
2022-12-09T18:47:01.644Z,16.27
2022-12-09T18:49:58.522Z,31.85
2022-12-09T18:52:55.354Z,18.13
2022-12-09T18:55:52.318Z,18.42
2022-12-09T18:59:05.946Z,33.17
2022-12-09T19:02:03.709Z,22.00
2022-12-09T19:05:01.470Z,20.75
2022-12-09T19:07:58.365Z,32.60
2022-12-09T19:10:55.733Z,33.15
2022-12-09T19:13:54.020Z,25.27
2022-12-09T19:16:52.633Z,23.30
2022-12-09T19:19:49.692Z,20.58
2022-12-09T19:22:46.679Z,19.52
2022-12-09T19:25:43.648Z,20.55
2022-12-09T19:28:47.970Z,27.23
2022-12-09T19:31:48.675Z,30.08
2022-12-09T19:34:45.603Z,29.35
2022-12-09T19:37:42.508Z,28.30
2022-12-09T19:40:39.380Z,24.35
2022-12-09T19:43:36.670Z,16.88
2022-12-09T19:46:34.993Z,18.20
2022-12-09T19:49:32.268Z,18.95
2022-12-09T19:52:29.155Z,16.20
2022-12-09T19:55:26.000Z,15.88
2022-12-09T19:58:23.950Z,16.15
2022-12-09T20:01:25.211Z,13.68
2022-12-09T20:07:41.473Z,13.20
2022-12-09T20:10:47.283Z,13.05
2022-12-09T20:13:44.945Z,12.32
2022-12-09T20:16:42.141Z,13.15
2022-12-09T20:19:39.073Z,13.30
2022-12-09T20:22:35.996Z,11.70
2022-12-09T20:25:36.449Z,13.75
2022-12-09T20:28:34.121Z,17.05
2022-12-09T20:31:34.241Z,15.13
2022-12-09T20:34:31.200Z,14.43
2022-12-09T20:37:30.428Z,14.25
2022-12-09T20:40:27.346Z,13.90
2022-12-09T20:43:24.288Z,13.65
2022-12-09T20:46:26.156Z,14.38
2022-12-09T20:49:26.652Z,14.27
2022-12-09T20:52:24.610Z,18.17
2022-12-09T20:55:21.508Z,13.38
2022-12-09T20:58:18.363Z,13.30
2022-12-09T21:01:19.629Z,17.33
2022-12-09T21:04:18.092Z,14.95
2022-12-09T21:07:15.026Z,13.85
2022-12-09T21:10:12.048Z,14.43
2022-12-09T21:13:08.945Z,14.68
2022-12-09T21:16:20.257Z,12.35
2022-12-09T21:19:24.375Z,13.63
2022-12-09T21:22:21.319Z,13.43
2022-12-09T21:25:18.278Z,13.68
2022-12-09T21:28:15.491Z,13.50
2022-12-09T21:31:22.838Z,13.15
2022-12-09T21:34:20.568Z,12.65
2022-12-09T21:37:17.722Z,11.90
2022-12-09T21:40:14.607Z,12.55
2022-12-09T21:43:11.503Z,13.65
2022-12-09T21:46:16.227Z,12.93
2022-12-09T21:49:13.513Z,13.65
2022-12-09T21:52:10.920Z,14.02
2022-12-09T21:55:08.277Z,11.52
2022-12-09T21:58:05.167Z,13.95
2022-12-09T22:01:10.839Z,13.30
2022-12-09T22:04:12.721Z,15.27
2022-12-09T22:07:09.620Z,14.32
2022-12-09T22:10:07.835Z,14.15
2022-12-09T22:13:05.134Z,14.63
2022-12-09T22:16:20.599Z,14.80
2022-12-09T22:19:21.103Z,15.38
2022-12-09T22:22:17.953Z,16.40
2022-12-09T22:25:14.922Z,15.18
2022-12-09T22:28:11.820Z,14.68
2022-12-09T22:31:15.177Z,15.93
2022-12-09T22:34:20.087Z,15.32
2022-12-09T22:37:42.437Z,15.20
2022-12-09T22:40:36.089Z,16.63
2022-12-09T22:43:37.914Z,14.93
2022-12-09T22:46:35.282Z,14.13
2022-12-09T22:49:32.194Z,13.40
2022-12-09T22:52:29.122Z,14.93
2022-12-09T22:55:25.981Z,13.15
2022-12-09T22:58:22.888Z,14.45
2022-12-09T23:01:26.454Z,13.32
2022-12-09T23:04:23.440Z,14.20
2022-12-09T23:07:20.288Z,13.63
2022-12-09T23:10:17.210Z,13.95
2022-12-09T23:13:14.070Z,14.15
2022-12-09T23:16:19.202Z,14.85
2022-12-09T23:19:16.140Z,13.77
2022-12-09T23:22:13.022Z,15.10
2022-12-09T23:25:10.345Z,16.48
2022-12-09T23:28:07.396Z,16.27
2022-12-09T23:31:06.554Z,15.23
2022-12-09T23:34:05.932Z,14.85
2022-12-09T23:37:03.379Z,15.90
2022-12-09T23:40:00.273Z,16.25
2022-12-09T23:42:57.128Z,14.50
2022-12-09T23:45:54.008Z,14.65
2022-12-09T23:48:52.275Z,12.82
2022-12-09T23:51:49.171Z,12.95
2022-12-09T23:54:46.045Z,13.95
2022-12-09T23:57:42.887Z,13.68
